Time;durP1;ratioP1;P1;durP2;ratioP2;P2;SDS_P1;SDS_P2;PMS_P1;PMS_P2;Temp;Humidity;BMP_temperature;BMP_pressure;BME280_temperature;BME280_humidity;BME280_pressure;Samples;Min_cycle;Max_cycle;Signal;HPM_P1;HPM_P2
2022/01/04 00:00:20;;;;;;;;;2.00;2.00;;;;;20.91;46.10;99802.75;5038293;28;45446;-55
2022/01/04 00:02:46;;;;;;;;;1.25;1.25;;;;;20.89;45.88;99788.84;5056314;28;45387;-58
2022/01/04 00:05:12;;;;;;;;;1.50;1.50;;;;;20.89;45.95;99783.59;5056496;28;45320;-56
2022/01/04 00:07:38;;;;;;;;;1.00;1.00;;;;;20.89;46.32;99777.50;5037713;28;46421;-56
2022/01/04 00:10:07;;;;;;;;;1.25;1.25;;;;;20.88;46.29;99775.81;5037275;28;45787;-56
2022/01/04 00:15:17;;;;;;;;;1.25;1.25;;;;;20.87;46.10;99755.69;5056271;28;45217;-56
2022/01/04 00:17:42;;;;;;;;;3.00;2.00;;;;;20.86;46.30;99752.22;5055733;28;45430;-57
2022/01/04 00:20:08;;;;;;;;;1.00;1.00;;;;;20.85;46.24;99753.19;5055948;28;45270;-57
2022/01/04 00:22:33;;;;;;;;;1.25;1.25;;;;;20.85;46.16;99740.00;5055978;28;45363;-57
2022/01/04 00:24:59;;;;;;;;;1.25;1.25;;;;;20.84;46.28;99738.34;5056344;28;45235;-58
2022/01/04 00:27:24;;;;;;;;;1.00;1.00;;;;;20.83;46.00;99732.25;5055719;28;46559;-57
2022/01/04 00:29:50;;;;;;;;;1.75;1.75;;;;;20.83;46.31;99724.34;5055838;28;45344;-58
2022/01/04 00:32:15;;;;;;;;;0.00;0.00;;;;;20.79;46.10;99709.72;5056007;28;45726;-57
2022/01/04 00:34:41;;;;;;;;;1.00;1.00;;;;;20.81;46.30;99710.44;5056342;28;45394;-57
2022/01/04 00:37:07;;;;;;;;;2.50;2.00;;;;;20.82;46.25;99698.09;5055406;28;46311;-57
2022/01/04 00:39:33;;;;;;;;;2.00;2.00;;;;;20.80;46.29;99686.84;5055609;28;45444;-54
2022/01/04 00:41:58;;;;;;;;;1.75;1.00;;;;;20.79;46.48;99683.38;5056084;28;45472;-54
2022/01/04 00:44:23;;;;;;;;;4.00;2.00;;;;;20.80;46.47;99681.56;5037820;28;45342;-58
2022/01/04 00:46:49;;;;;;;;;3.00;3.00;;;;;20.81;46.46;99670.09;5055416;28;45370;-58
2022/01/04 00:49:17;;;;;;;;;1.50;1.00;;;;;20.78;46.13;99668.53;5037411;28;45569;-57
2022/01/04 00:51:47;;;;;;;;;2.00;2.00;;;;;20.78;46.26;99662.44;5055597;28;45375;-58
2022/01/04 00:54:13;;;;;;;;;0.25;0.25;;;;;20.78;46.32;99660.63;5055916;28;45408;-57
2022/01/04 00:56:39;;;;;;;;;4.25;2.50;;;;;20.77;45.94;99652.84;5058223;28;47188;-58
2022/01/04 00:59:04;;;;;;;;;2.00;2.00;;;;;20.78;46.29;99654.53;5058962;28;45368;-58
2022/01/04 01:01:31;;;;;;;;;1.00;1.00;;;;;20.77;46.51;99639.69;5059271;28;45394;-58
2022/01/04 01:03:56;;;;;;;;;3.50;1.00;;;;;20.77;46.17;99644.97;5059170;28;45412;-58
2022/01/04 01:06:22;;;;;;;;;2.25;1.00;;;;;20.76;46.55;99636.19;5058763;28;45646;-58
2022/01/04 01:08:48;;;;;;;;;1.50;1.00;;;;;20.74;46.07;99621.44;5058428;28;45222;-57
2022/01/04 01:11:14;;;;;;;;;0.50;0.50;;;;;20.74;46.50;99616.19;5058791;28;45366;-58
2022/01/04 01:13:40;;;;;;;;;1.00;1.00;;;;;20.75;46.14;99610.00;5058914;28;45221;-58
2022/01/04 01:16:06;;;;;;;;;1.00;1.00;;;;;20.73;46.74;99606.59;5058696;28;46255;-57
2022/01/04 01:18:31;;;;;;;;;1.00;1.00;;;;;20.73;46.51;99599.53;5058945;28;45367;-58
2022/01/04 01:20:57;;;;;;;;;1.00;1.00;;;;;20.73;46.37;99609.25;5058943;28;45359;-58
2022/01/04 01:23:23;;;;;;;;;1.00;1.00;;;;;20.73;46.70;99591.63;5058804;28;45579;-58
2022/01/04 01:25:49;;;;;;;;;1.00;1.00;;;;;20.74;46.24;99597.75;5058532;28;45338;-58
2022/01/04 01:28:16;;;;;;;;;1.25;1.00;;;;;20.73;46.65;99588.16;5040474;28;45394;-58
2022/01/04 01:30:43;;;;;;;;;1.00;1.00;;;;;20.72;46.32;99589.13;5058594;28;45433;-58
2022/01/04 01:33:09;;;;;;;;;2.00;2.00;;;;;20.70;46.22;99578.72;5058887;28;45442;-58
2022/01/04 01:35:37;;;;;;;;;1.00;0.25;;;;;20.72;46.36;99586.50;5058405;28;45534;-57
2022/01/04 01:38:03;;;;;;;;;1.00;1.00;;;;;20.72;46.14;99574.19;5058691;28;45331;-58
2022/01/04 01:40:28;;;;;;;;;2.00;1.00;;;;;20.69;46.26;99577.03;5058410;28;45311;-58
2022/01/04 01:42:54;;;;;;;;;0.50;0.00;;;;;20.71;46.30;99564.59;5058720;28;45790;-58
2022/01/04 01:45:21;;;;;;;;;0.75;0.75;;;;;20.69;46.52;99564.69;5058231;28;46337;-58
2022/01/04 01:47:47;;;;;;;;;1.50;1.00;;;;;20.68;46.29;99555.13;5058195;28;45192;-57
2022/01/04 01:50:13;;;;;;;;;0.50;0.50;;;;;20.69;46.52;99550.72;5040158;28;45368;-58
2022/01/04 01:52:40;;;;;;;;;2.00;2.00;;;;;20.69;46.58;99543.63;5040336;28;45475;-59
2022/01/04 01:55:07;;;;;;;;;0.25;0.25;;;;;20.67;46.64;99528.91;5058020;28;46492;-57
2022/01/04 01:57:32;;;;;;;;;1.00;1.00;;;;;20.67;46.33;99527.13;5058184;28;45485;-58
2022/01/04 01:59:58;;;;;;;;;0.00;0.00;;;;;20.65;46.25;99529.06;5058285;28;45358;-56
2022/01/04 02:02:24;;;;;;;;;0.00;0.00;;;;;20.68;46.87;99528.78;5058162;28;45587;-58
2022/01/04 02:04:49;;;;;;;;;1.00;0.75;;;;;20.67;46.66;99527.13;5039804;28;45632;-58
2022/01/04 02:07:16;;;;;;;;;1.50;0.00;;;;;20.66;46.44;99521.97;5057008;28;45430;-57
2022/01/04 02:09:47;;;;;;;;;1.00;1.00;;;;;20.65;46.66;99523.78;5057741;28;45237;-58
2022/01/04 02:12:15;;;;;;;;;0.00;0.00;;;;;20.66;46.76;99525.47;5039867;28;45428;-58
2022/01/04 02:14:49;;;;;;;;;1.00;1.00;;;;;20.66;46.66;99514.94;5057673;28;46393;-58
2022/01/04 02:17:14;;;;;;;;;1.00;1.00;;;;;20.66;46.52;99514.94;5057540;28;45371;-57
2022/01/04 02:19:39;;;;;;;;;1.00;0.00;;;;;20.64;46.92;99511.56;5057532;28;45352;-58
2022/01/04 02:22:05;;;;;;;;;2.75;0.00;;;;;20.63;46.42;99504.63;5058276;28;45323;-57
2022/01/04 02:24:32;;;;;;;;;0.00;0.00;;;;;20.64;46.42;99490.53;5057559;28;46303;-58
2022/01/04 02:26:59;;;;;;;;;2.00;2.00;;;;;20.64;46.90;99495.78;5057552;28;45338;-58
2022/01/04 02:29:24;;;;;;;;;0.00;0.00;;;;;20.64;46.55;99492.28;5057585;28;45186;-57
2022/01/04 02:31:50;;;;;;;;;1.00;1.00;;;;;20.63;46.82;99480.94;5057796;28;45458;-58
2022/01/04 02:34:15;;;;;;;;;1.25;1.00;;;;;20.61;46.56;99471.50;5039296;28;47359;-57
2022/01/04 02:36:41;;;;;;;;;0.00;0.00;;;;;20.61;46.74;99469.69;5057343;28;45351;-56
2022/01/04 02:39:06;;;;;;;;;1.50;1.00;;;;;20.62;46.87;99466.09;5057700;28;45364;-56
2022/01/04 02:41:31;;;;;;;;;1.25;1.00;;;;;20.61;46.28;99458.34;5057739;28;45528;-57
2022/01/04 02:43:57;;;;;;;;;1.00;1.00;;;;;20.61;46.86;99453.06;5039031;28;47339;-56
2022/01/04 02:46:22;;;;;;;;;2.00;0.75;;;;;20.60;46.82;99452.22;5057100;28;48765;-58
2022/01/04 02:48:47;;;;;;;;;0.75;0.75;;;;;20.60;46.81;99441.69;5057356;28;45345;-57
2022/01/04 02:51:13;;;;;;;;;0.50;0.50;;;;;20.59;46.63;99442.63;5057566;28;45460;-57
2022/01/04 02:53:38;;;;;;;;;1.00;1.00;;;;;20.60;46.79;99430.34;5056974;28;46448;-57
2022/01/04 02:56:04;;;;;;;;;0.25;0.00;;;;;20.59;46.33;99428.66;5057402;28;45395;-57
2022/01/04 02:58:29;;;;;;;;;0.25;0.25;;;;;20.59;46.83;99426.03;5057189;28;45435;-58
2022/01/04 03:00:55;;;;;;;;;1.00;1.00;;;;;20.58;46.52;99412.00;5057313;28;45238;-58
2022/01/04 03:03:20;;;;;;;;;0.00;0.00;;;;;20.57;46.92;99405.06;5056770;28;46697;-56
2022/01/04 03:05:45;;;;;;;;;0.00;0.00;;;;;20.57;46.53;99405.06;5056901;28;45238;-56
2022/01/04 03:08:11;;;;;;;;;1.50;1.50;;;;;20.53;46.68;99401.00;5056889;28;45490;-55
2022/01/04 03:10:36;;;;;;;;;0.00;0.00;;;;;20.55;46.58;99396.47;5057515;28;45316;-57
2022/01/04 03:13:04;;;;;;;;;0.00;0.00;;;;;20.55;46.48;99396.47;5056799;28;46456;-58
2022/01/04 03:15:30;;;;;;;;;0.00;0.00;;;;;20.57;46.87;99405.06;5057002;28;45225;-56
2022/01/04 03:17:55;;;;;;;;;0.00;0.00;;;;;20.54;46.49;99392.16;5056283;28;45222;-59
2022/01/04 03:20:20;;;;;;;;;0.25;0.25;;;;;20.54;46.73;99382.47;5056135;28;45396;-58
2022/01/04 03:22:46;;;;;;;;;0.25;0.25;;;;;20.55;46.73;99375.41;5056739;28;46361;-57
2022/01/04 03:25:11;;;;;;;;;0.00;0.00;;;;;20.53;46.87;99366.78;5056650;28;45379;-58
2022/01/04 03:27:37;;;;;;;;;0.00;0.00;;;;;20.54;46.85;99373.75;5057047;28;45326;-58
2022/01/04 03:30:04;;;;;;;;;0.00;0.00;;;;;20.52;46.88;99370.38;5056951;28;45478;-59
2022/01/04 03:32:30;;;;;;;;;0.00;0.00;;;;;20.52;46.66;99368.56;5056455;28;45600;-58
2022/01/04 03:34:55;;;;;;;;;0.00;0.00;;;;;20.52;46.51;99362.50;5056591;28;45399;-58
2022/01/04 03:37:20;;;;;;;;;0.00;0.00;;;;;20.50;46.36;99365.25;5056580;28;45375;-58
2022/01/04 03:39:46;;;;;;;;;0.00;0.00;;;;;20.52;46.75;99359.84;5056971;28;45541;-59
2022/01/04 03:42:11;;;;;;;;;0.00;0.00;;;;;20.51;46.21;99347.66;5056422;28;45348;-59
2022/01/04 03:44:37;;;;;;;;;1.00;1.00;;;;;20.50;46.62;99352.09;5056713;28;45213;-58
2022/01/04 03:47:02;;;;;;;;;0.00;0.00;;;;;20.50;46.59;99344.19;5056619;28;45439;-58
2022/01/04 03:49:28;;;;;;;;;0.00;0.00;;;;;20.50;46.30;99354.72;5056573;28;45179;-55
2022/01/04 03:51:53;;;;;;;;;0.00;0.00;;;;;20.50;46.50;99345.97;5056265;28;46562;-57
2022/01/04 03:54:19;;;;;;;;;0.00;0.00;;;;;20.49;46.13;99345.16;5038230;28;46081;-58
2022/01/04 03:56:45;;;;;;;;;1.00;0.00;;;;;20.48;46.35;99340.84;5056390;28;45292;-58
2022/01/04 03:59:10;;;;;;;;;0.00;0.00;;;;;20.48;46.28;99335.59;5056958;28;45521;-58
2022/01/04 04:01:36;;;;;;;;;0.00;0.00;;;;;20.47;46.18;99346.22;5056163;28;46583;-57
2022/01/04 04:04:01;;;;;;;;;0.00;0.00;;;;;20.48;46.45;99340.00;5056186;28;45737;-57
2022/01/04 04:06:26;;;;;;;;;0.00;0.00;;;;;20.48;46.32;99346.09;5056330;28;45384;-57
2022/01/04 04:08:54;;;;;;;;;0.75;0.75;;;;;20.45;46.47;99345.53;5056244;28;45593;-56
2022/01/04 04:11:19;;;;;;;;;0.00;0.00;;;;;20.46;46.57;99355.06;5056019;28;47248;-58
2022/01/04 04:13:44;;;;;;;;;0.00;0.00;;;;;20.46;46.23;99344.53;5056178;28;45363;-58
2022/01/04 04:16:10;;;;;;;;;0.00;0.00;;;;;20.44;46.68;99346.47;5056294;28;45316;-57
2022/01/04 04:18:35;;;;;;;;;0.00;0.00;;;;;20.45;46.14;99343.72;5056355;28;45380;-55
2022/01/04 04:21:00;;;;;;;;;0.00;0.00;;;;;20.47;46.39;99356.72;5055938;28;45960;-58
2022/01/04 04:23:26;;;;;;;;;0.00;0.00;;;;;20.45;46.14;99359.50;5037853;28;45368;-58
2022/01/04 04:25:51;;;;;;;;;0.00;0.00;;;;;20.43;46.32;99361.41;5056050;28;45305;-58
2022/01/04 04:28:17;;;;;;;;;0.25;0.00;;;;;20.44;46.26;99351.72;5056123;28;45352;-59
2022/01/04 04:30:42;;;;;;;;;2.00;0.00;;;;;20.45;46.32;99358.69;5057525;28;45348;-59
2022/01/04 04:33:08;;;;;;;;;0.00;0.00;;;;;20.44;46.40;99364.91;5059590;28;45320;-59
2022/01/04 04:35:33;;;;;;;;;0.00;0.00;;;;;20.42;46.13;99359.72;5059499;28;45290;-57
2022/01/04 04:38:00;;;;;;;;;0.00;0.00;;;;;20.43;46.00;99355.31;5059598;28;45344;-59
2022/01/04 04:40:25;;;;;;;;;0.00;0.00;;;;;20.43;46.25;99357.94;5059266;28;45593;-58
2022/01/04 04:42:51;;;;;;;;;0.00;0.00;;;;;20.43;46.12;99360.59;5059165;28;45359;-59
2022/01/04 04:45:16;;;;;;;;;0.00;0.00;;;;;20.42;46.41;99361.53;5059204;28;45325;-58
2022/01/04 04:47:41;;;;;;;;;0.00;0.00;;;;;20.43;46.48;99360.59;5059625;28;45710;-57
2022/01/04 04:50:08;;;;;;;;;1.75;0.00;;;;;20.41;46.22;99368.59;5059028;28;45321;-61
2022/01/04 04:52:34;;;;;;;;;0.00;0.00;;;;;20.36;45.21;99379.47;5059212;28;45875;-60
2022/01/04 04:54:59;;;;;;;;;0.50;0.00;;;;;20.26;45.70;99383.78;5059148;28;45442;-59
2022/01/04 04:57:25;;;;;;;;;0.00;0.00;;;;;20.17;44.96;99371.31;5059135;28;45459;-63
2022/01/04 04:59:50;;;;;;;;;0.00;0.00;;;;;20.06;44.92;99385.31;5058760;28;45467;-63
2022/01/04 05:02:15;;;;;;;;;0.00;0.00;;;;;19.97;45.24;99386.84;5058911;28;45420;-59
2022/01/04 05:04:41;;;;;;;;;0.00;0.00;;;;;19.86;44.83;99384.19;5059316;28;45324;-57
2022/01/04 05:07:06;;;;;;;;;0.00;0.00;;;;;19.79;45.18;99375.91;5059176;28;45388;-57
2022/01/04 05:09:31;;;;;;;;;0.00;0.00;;;;;19.71;45.13;99384.34;5058515;28;46230;-58
2022/01/04 05:11:57;;;;;;;;;0.00;0.00;;;;;19.61;45.26;99378.97;5058646;28;45253;-58
2022/01/04 05:14:22;;;;;;;;;0.00;0.00;;;;;19.56;45.07;99385.53;5058839;28;45407;-58
2022/01/04 05:16:47;;;;;;;;;0.00;0.00;;;;;19.50;44.91;99388.59;5058829;28;45262;-59
2022/01/04 05:19:13;;;;;;;;;0.00;0.00;;;;;19.44;45.25;99396.00;5058711;28;46584;-59
2022/01/04 05:21:39;;;;;;;;;0.00;0.00;;;;;19.37;44.83;99388.66;5058611;28;45371;-58
2022/01/04 05:24:05;;;;;;;;;0.00;0.00;;;;;19.30;44.54;99391.72;5058730;28;45330;-59
2022/01/04 05:26:33;;;;;;;;;0.00;0.00;;;;;19.25;44.88;99391.22;5058918;28;45323;-56
2022/01/04 05:28:58;;;;;;;;;0.00;0.00;;;;;19.26;45.10;99394.69;5058455;28;46237;-59
2022/01/04 05:31:24;;;;;;;;;1.00;0.00;;;;;19.29;45.52;99402.34;5058399;28;45395;-59
2022/01/04 05:33:49;;;;;;;;;0.00;0.00;;;;;19.34;45.47;99399.38;5057468;28;45380;-59
2022/01/04 05:36:14;;;;;;;;;0.00;0.00;;;;;19.38;45.20;99393.78;5058924;28;45477;-59
2022/01/04 05:38:40;;;;;;;;;0.00;0.00;;;;;19.44;45.71;99398.63;5058166;28;46243;-60
2022/01/04 05:41:06;;;;;;;;;0.00;0.00;;;;;19.49;45.48;99398.28;5057959;28;45371;-63
2022/01/04 05:43:31;;;;;;;;;0.00;0.00;;;;;19.54;45.36;99397.94;5057536;28;45322;-64
2022/01/04 05:45:57;;;;;;;;;0.00;0.00;;;;;19.57;44.96;99400.31;5058399;28;45359;-63
2022/01/04 05:48:22;;;;;;;;;0.00;0.00;;;;;19.58;45.05;99392.34;5058123;28;45343;-63
2022/01/04 05:50:48;;;;;;;;;0.00;0.00;;;;;19.65;45.08;99399.75;5058108;28;45240;-64
2022/01/04 05:53:14;;;;;;;;;0.00;0.00;;;;;19.66;45.03;99397.03;5058586;28;45269;-64
2022/01/04 05:55:39;;;;;;;;;0.00;0.00;;;;;19.68;45.10;99397.72;5058419;28;45466;-64
2022/01/04 05:58:05;;;;;;;;;0.00;0.00;;;;;19.69;45.06;99404.66;5057802;28;45423;-63
2022/01/04 06:00:30;;;;;;;;;0.00;0.00;;;;;19.73;45.17;99400.84;5057979;28;45232;-63
2022/01/04 06:02:58;;;;;;;;;0.00;0.00;;;;;19.75;45.39;99398.97;5058021;28;45302;-63
2022/01/04 06:05:24;;;;;;;;;0.00;0.00;;;;;19.78;44.95;99397.88;5040141;28;45414;-63
2022/01/04 06:07:49;;;;;;;;;0.75;0.00;;;;;19.75;45.43;99383.19;5039445;28;46566;-64
2022/01/04 06:10:15;;;;;;;;;0.00;0.00;;;;;19.78;44.95;99396.09;5058066;28;45308;-61
2022/01/04 06:15:09;;;;;;;;;0.00;0.00;;;;;19.81;45.26;99389.78;5058194;28;45498;-64
2022/01/04 06:17:41;;;;;;;;;0.00;0.00;;;;;19.84;44.84;99386.06;5057623;28;45460;-63
2022/01/04 06:20:12;;;;;;;;;0.00;0.00;;;;;19.85;45.01;99385.94;5039710;28;45879;-63
2022/01/04 06:22:38;;;;;;;;;0.00;0.00;;;;;19.86;44.85;99394.72;5057799;28;45490;-63
2022/01/04 06:25:06;;;;;;;;;1.00;0.00;;;;;19.88;44.82;99400.69;5057871;28;45525;-63
2022/01/04 06:27:31;;;;;;;;;0.00;0.00;;;;;19.88;45.32;99400.69;5057496;28;45340;-62
2022/01/04 06:29:58;;;;;;;;;0.00;0.00;;;;;19.89;44.96;99412.91;5057663;28;45314;-62
2022/01/04 06:32:23;;;;;;;;;0.00;0.00;;;;;19.89;45.22;99420.78;5057720;28;45372;-62
2022/01/04 06:34:49;;;;;;;;;0.00;0.00;;;;;19.90;44.84;99431.19;5057618;28;45359;-63
2022/01/04 06:37:15;;;;;;;;;0.00;0.00;;;;;19.90;45.14;99422.44;5057594;28;46177;-63
2022/01/04 06:39:42;;;;;;;;;0.00;0.00;;;;;19.91;45.09;99424.09;5057314;28;45325;-63
2022/01/04 06:42:08;;;;;;;;;0.00;0.00;;;;;19.92;45.41;99423.16;5057417;28;45325;-63
2022/01/04 06:44:33;;;;;;;;;0.00;0.00;;;;;19.91;44.62;99426.75;5057594;28;45476;-63
2022/01/04 06:46:59;;;;;;;;;0.00;0.00;;;;;19.93;45.12;99432.72;5057093;28;46140;-63
2022/01/04 06:49:24;;;;;;;;;0.00;0.00;;;;;19.93;45.45;99435.34;5039164;28;45521;-63
2022/01/04 06:51:50;;;;;;;;;1.00;0.00;;;;;19.93;45.07;99438.00;5057484;28;45497;-64
2022/01/04 06:54:18;;;;;;;;;0.00;0.00;;;;;19.96;45.24;99444.81;5057434;28;45555;-63
2022/01/04 06:56:43;;;;;;;;;0.00;0.00;;;;;19.94;44.81;99455.44;5056933;28;45534;-63
2022/01/04 06:59:09;;;;;;;;;0.00;0.00;;;;;19.93;44.99;99449.38;5057060;28;45355;-63
2022/01/04 07:01:36;;;;;;;;;0.00;0.00;;;;;19.93;44.73;99459.03;5057188;28;45461;-63
2022/01/04 07:04:01;;;;;;;;;0.00;0.00;;;;;19.95;45.33;99472.91;5057382;28;45324;-64
2022/01/04 07:06:27;;;;;;;;;0.00;0.00;;;;;19.96;44.92;99468.47;5038716;28;48121;-63
2022/01/04 07:08:53;;;;;;;;;0.25;0.00;;;;;19.97;44.94;99470.16;5056752;28;45392;-64
2022/01/04 07:11:18;;;;;;;;;1.00;0.00;;;;;19.97;45.31;99465.75;5057330;28;45453;-64
2022/01/04 07:13:44;;;;;;;;;0.00;0.00;;;;;19.97;45.37;99465.75;5039063;28;45609;-64
2022/01/04 07:16:10;;;;;;;;;0.00;0.00;;;;;19.98;45.10;99467.41;5038736;28;48128;-64
2022/01/04 07:18:35;;;;;;;;;0.00;0.00;;;;;19.97;45.43;99471.00;5056833;28;45387;-64
2022/01/04 07:21:01;;;;;;;;;0.00;0.00;;;;;19.98;44.88;99467.41;5056943;28;45312;-64
2022/01/04 07:23:27;;;;;;;;;0.00;0.00;;;;;19.97;45.34;99471.00;5057067;28;45328;-64
2022/01/04 07:25:53;;;;;;;;;0.00;0.00;;;;;19.97;44.80;99460.47;5056488;28;46506;-64
2022/01/04 07:28:19;;;;;;;;;0.00;0.00;;;;;19.97;44.90;99460.47;5056987;28;45387;-63
2022/01/04 07:30:44;;;;;;;;;0.00;0.00;;;;;19.98;45.14;99466.56;5038728;28;45497;-64
2022/01/04 07:33:10;;;;;;;;;0.00;0.00;;;;;19.98;45.26;99472.69;5056859;28;45172;-64
2022/01/04 07:35:36;;;;;;;;;0.00;0.00;;;;;19.98;45.37;99480.56;5056471;28;45283;-63
2022/01/04 07:38:01;;;;;;;;;0.00;0.00;;;;;19.98;45.17;99488.47;5056513;28;45800;-63
2022/01/04 07:40:26;;;;;;;;;0.00;0.00;;;;;19.99;44.95;99491.91;5056520;28;45582;-63
2022/01/04 07:42:53;;;;;;;;;0.00;0.00;;;;;19.96;44.97;99495.63;5056736;28;45535;-63
2022/01/04 07:45:19;;;;;;;;;0.00;0.00;;;;;19.98;45.36;99498.97;5056725;28;46065;-65
2022/01/04 07:47:44;;;;;;;;;0.00;0.00;;;;;19.98;45.16;99498.97;5056368;28;45340;-63
2022/01/04 07:50:10;;;;;;;;;0.00;0.00;;;;;19.97;45.16;99502.56;5056412;28;45350;-63
2022/01/04 07:52:36;;;;;;;;;0.00;0.00;;;;;19.97;45.30;99513.06;5056566;28;45637;-63
2022/01/04 07:55:03;;;;;;;;;0.00;0.00;;;;;20.00;45.58;99512.88;5056077;28;46077;-63
2022/01/04 07:57:28;;;;;;;;;0.00;0.00;;;;;20.01;45.14;99509.25;5056070;28;45229;-63
2022/01/04 07:59:55;;;;;;;;;0.00;0.00;;;;;20.04;45.01;99524.00;5055154;28;45437;-63
2022/01/04 08:02:20;;;;;;;;;0.00;0.00;;;;;20.05;45.36;99531.75;5056839;28;45309;-63
2022/01/04 08:04:45;;;;;;;;;0.00;0.00;;;;;20.07;45.08;99543.00;5056104;28;45665;-62
2022/01/04 08:07:11;;;;;;;;;0.00;0.00;;;;;20.08;45.04;99552.56;5059625;28;45258;-63
2022/01/04 08:09:36;;;;;;;;;0.00;0.00;;;;;20.09;45.34;99548.13;5059513;28;45328;-62
2022/01/04 08:12:01;;;;;;;;;1.00;0.00;;;;;20.13;45.03;99556.63;5059883;28;45576;-62
2022/01/04 08:14:27;;;;;;;;;0.00;0.00;;;;;20.13;44.97;99559.28;5059548;28;45548;-63
2022/01/04 08:16:53;;;;;;;;;0.00;0.00;;;;;20.17;44.77;99571.25;5059810;28;45383;-64
2022/01/04 08:19:18;;;;;;;;;0.00;0.00;;;;;20.17;44.86;99577.38;5060052;28;45681;-64
2022/01/04 08:21:44;;;;;;;;;0.00;0.00;;;;;20.18;45.15;99583.47;5041814;28;45355;-62
2022/01/04 08:24:09;;;;;;;;;1.50;0.00;;;;;20.18;45.13;99589.53;5059263;28;45679;-60
2022/01/04 08:26:36;;;;;;;;;0.00;0.00;;;;;20.16;44.90;99572.19;5059668;28;45320;-62
2022/01/04 08:29:01;;;;;;;;;0.00;0.00;;;;;20.17;44.70;99569.47;5059634;28;45407;-58
2022/01/04 08:31:27;;;;;;;;;0.00;0.00;;;;;20.14;45.28;99556.53;5041739;28;45267;-59
2022/01/04 08:33:53;;;;;;;;;0.00;0.00;;;;;20.15;45.19;99562.63;5059325;28;46241;-60
2022/01/04 08:36:18;;;;;;;;;0.00;0.00;;;;;20.13;45.07;99573.28;5059437;28;45202;-60
2022/01/04 08:38:44;;;;;;;;;1.00;0.00;;;;;20.13;45.45;99591.69;5059345;28;45268;-56
2022/01/04 08:41:09;;;;;;;;;0.00;0.00;;;;;20.14;45.15;99596.00;5041468;28;45609;-57
2022/01/04 08:43:35;;;;;;;;;0.00;0.00;;;;;20.12;44.96;99595.28;5059261;28;46283;-57
2022/01/04 08:46:00;;;;;;;;;0.00;0.00;;;;;20.14;45.44;99601.25;5059190;28;45241;-59
2022/01/04 08:48:25;;;;;;;;;1.50;0.50;;;;;20.11;45.22;99595.41;5059230;28;45258;-58
2022/01/04 08:50:51;;;;;;;;;0.00;0.00;;;;;20.12;45.20;99600.53;5059764;28;45573;-58
2022/01/04 08:53:16;;;;;;;;;0.00;0.00;;;;;20.13;45.45;99611.88;5040788;28;46110;-54
2022/01/04 08:55:41;;;;;;;;;0.00;0.00;;;;;20.13;45.17;99620.63;5059011;28;45271;-54
2022/01/04 08:58:07;;;;;;;;;0.00;0.00;;;;;20.14;44.93;99608.31;5040898;28;45415;-59
2022/01/04 09:00:34;;;;;;;;;0.25;0.25;;;;;20.14;45.11;99616.19;5059285;28;45288;-58
2022/01/04 09:03:00;;;;;;;;;3.00;0.00;;;;;20.15;45.42;99605.56;5058561;28;46994;-58
2022/01/04 09:05:26;;;;;;;;;0.00;0.00;;;;;20.16;45.47;99611.66;5059137;28;46032;-58
2022/01/04 09:07:52;;;;;;;;;0.00;0.00;;;;;20.16;45.11;99617.78;5059105;28;45335;-58
2022/01/04 09:10:17;;;;;;;;;1.50;0.25;;;;;20.17;44.85;99621.25;5059172;28;45211;-58
2022/01/04 09:20:57;;;;;;;;;0.00;0.00;;;;;20.19;45.14;99637.75;5058894;28;45318;-58
2022/01/04 09:23:23;;;;;;;;;0.00;0.00;;;;;20.19;45.37;99621.97;5058852;28;46504;-58
2022/01/04 09:25:49;;;;;;;;;0.00;0.00;;;;;20.18;44.92;99623.75;5058614;28;45351;-58
2022/01/04 09:28:16;;;;;;;;;0.00;0.00;;;;;20.17;44.75;99624.72;5058662;28;45265;-59
2022/01/04 09:30:44;;;;;;;;;0.00;0.00;;;;;20.16;45.15;99616.94;5058794;28;45439;-61
2022/01/04 09:33:09;;;;;;;;;0.00;0.00;;;;;20.17;44.82;99615.97;5058397;28;45655;-60
2022/01/04 09:35:36;;;;;;;;;0.00;0.00;;;;;20.16;45.16;99615.16;5058418;28;45300;-59
2022/01/04 09:38:03;;;;;;;;;0.00;0.00;;;;;20.14;44.80;99624.94;5058408;28;45337;-60
2022/01/04 09:40:28;;;;;;;;;0.00;0.00;;;;;20.13;44.90;99623.25;5040703;28;45654;-60
2022/01/04 09:42:54;;;;;;;;;0.00;0.00;;;;;20.13;44.73;99606.63;5058533;28;45600;-60
2022/01/04 09:45:20;;;;;;;;;0.00;0.00;;;;;20.11;45.12;99600.66;5058308;28;45426;-60
2022/01/04 09:47:46;;;;;;;;;0.00;0.00;;;;;20.11;44.69;99613.81;5058435;28;45447;-61
2022/01/04 09:50:11;;;;;;;;;0.00;0.00;;;;;20.10;45.02;99625.28;5058520;28;45563;-60
2022/01/04 09:52:43;;;;;;;;;0.00;0.00;;;;;20.08;45.26;99631.50;5058107;28;46626;-60
2022/01/04 09:55:11;;;;;;;;;1.00;0.00;;;;;20.09;44.49;99637.56;5039443;28;46980;-60
2022/01/04 09:57:36;;;;;;;;;0.00;0.00;;;;;20.07;44.53;99640.31;5058241;28;45580;-59
2022/01/04 10:00:04;;;;;;;;;0.00;0.00;;;;;20.06;45.20;99643.91;5058514;28;45594;-60
2022/01/04 10:02:30;;;;;;;;;0.00;0.00;;;;;20.06;44.83;99657.06;5058009;28;48649;-60
2022/01/04 10:05:25;;;;;;;;;0.00;0.00;;;;;20.07;45.06;99652.63;5058433;28;45335;-60
2022/01/04 10:08:01;;;;;;;;;0.00;0.00;;;;;20.06;45.07;99657.06;5040065;28;45466;-61
2022/01/04 10:10:26;;;;;;;;;0.00;0.00;;;;;20.04;44.74;99661.56;5058673;28;45312;-59
2022/01/04 10:12:59;;;;;;;;;0.00;0.00;;;;;20.04;44.63;99672.09;5056562;28;46355;-60
2022/01/04 10:15:36;;;;;;;;;1.00;0.00;;;;;20.03;44.95;99673.03;5058082;28;45260;-59
2022/01/04 10:18:13;;;;;;;;;0.00;0.00;;;;;20.04;44.63;99671.28;5057895;28;45361;-61
2022/01/04 10:20:49;;;;;;;;;0.00;0.00;;;;;20.03;44.42;99680.13;5058119;28;45654;-60
2022/01/04 10:23:17;;;;;;;;;1.00;0.00;;;;;20.01;44.30;99682.84;5057445;28;46944;-60
2022/01/04 10:25:45;;;;;;;;;1.00;0.00;;;;;20.02;44.45;99681.88;5057623;28;45385;-60
2022/01/04 10:28:11;;;;;;;;;0.00;0.00;;;;;20.02;44.75;99667.91;5057155;28;45426;-60
2022/01/04 10:30:43;;;;;;;;;0.00;0.00;;;;;20.00;44.79;99659.28;5057798;28;45400;-60
2022/01/04 10:33:10;;;;;;;;;1.00;0.00;;;;;20.02;44.75;99667.91;5057268;28;46626;-60
2022/01/04 10:35:50;;;;;;;;;0.00;0.00;;;;;20.01;44.42;99667.06;5057445;28;45741;-60
2022/01/04 10:38:34;;;;;;;;;0.00;0.00;;;;;19.99;44.43;99661.09;5057631;28;45789;-60
2022/01/04 10:41:10;;;;;;;;;1.00;0.00;;;;;19.99;44.82;99654.97;5058040;28;45374;-60
2022/01/04 10:43:38;;;;;;;;;0.50;0.00;;;;;19.99;44.41;99652.34;5057299;28;46209;-60
2022/01/04 10:46:04;;;;;;;;;0.00;0.00;;;;;19.97;44.48;99639.31;5057260;28;45427;-60
2022/01/04 10:48:39;;;;;;;;;0.00;0.00;;;;;19.98;44.51;99641.00;5057784;28;45410;-60
2022/01/04 10:51:15;;;;;;;;;0.00;0.00;;;;;19.98;44.28;99651.50;5057389;28;45433;-60
2022/01/04 10:53:43;;;;;;;;;0.00;0.00;;;;;19.97;44.09;99655.09;5057138;28;47258;-60
2022/01/04 10:56:11;;;;;;;;;1.00;0.00;;;;;19.96;44.53;99648.16;5057148;28;45677;-60
2022/01/04 10:58:42;;;;;;;;;0.00;0.00;;;;;19.98;44.19;99650.66;5057289;28;45229;-60
2022/01/04 11:01:28;;;;;;;;;0.50;0.50;;;;;19.97;44.46;99655.09;5057215;28;45244;-59
2022/01/04 11:03:57;;;;;;;;;0.00;0.00;;;;;19.97;44.59;99649.84;5056870;28;46051;-60
2022/01/04 11:06:30;;;;;;;;;0.00;0.00;;;;;19.93;44.06;99641.31;5056233;28;45428;-60
2022/01/04 11:08:57;;;;;;;;;0.00;0.00;;;;;19.96;44.72;99647.28;5056922;28;45240;-60
2022/01/04 11:11:23;;;;;;;;;0.00;0.00;;;;;19.97;44.58;99647.19;5039160;28;45943;-60
2022/01/04 11:13:51;;;;;;;;;0.50;0.00;;;;;19.96;44.38;99640.25;5056891;28;45694;-60
2022/01/04 11:16:19;;;;;;;;;0.75;0.00;;;;;19.96;44.44;99644.66;5056917;28;46008;-60
2022/01/04 11:18:49;;;;;;;;;0.00;0.00;;;;;19.95;44.32;99643.00;5056917;28;45263;-60
2022/01/04 11:21:15;;;;;;;;;0.00;0.00;;;;;19.94;43.98;99647.41;5057068;28;45446;-60
2022/01/04 11:23:42;;;;;;;;;0.00;0.00;;;;;19.94;44.45;99644.78;5056736;28;46386;-60
2022/01/04 11:26:09;;;;;;;;;0.00;0.00;;;;;19.95;44.04;99649.09;5056781;28;45357;-60
2022/01/04 11:28:41;;;;;;;;;0.00;0.00;;;;;19.92;44.60;99655.41;5056928;28;45386;-60
2022/01/04 11:31:12;;;;;;;;;0.50;0.50;;;;;19.94;44.38;99660.56;5056901;28;45398;-60
2022/01/04 11:33:56;;;;;;;;;0.00;0.00;;;;;19.95;44.13;99661.41;5056574;28;46711;-60
2022/01/04 11:36:25;;;;;;;;;0.00;0.00;;;;;19.94;44.12;99660.56;5056746;28;45710;-60
2022/01/04 11:38:51;;;;;;;;;0.00;0.00;;;;;19.93;43.99;99653.63;5056529;28;45265;-60
2022/01/04 11:41:24;;;;;;;;;0.50;0.50;;;;;19.92;44.36;99657.19;5037730;28;45594;-60
2022/01/04 11:43:50;;;;;;;;;0.00;0.00;;;;;19.92;43.86;99654.56;5056431;28;46479;-60